• Join FlightAware (Why Join?)
  • Login
  • US Flag 
07:58PM EDT


 

Airport Tracker/Info


-or-


 

Live Flight TrackerFlight Track Log ✈ BOE8 ✈ 20-Mar-2011 ✈ KPAE - KBFI

Flight Track Log - Related Links

Times and Time Zones

All times are in EDT time to prevent confusion due to time zone crossing. See the BOE8 flight status page for this flight to view local times or setup timezone preferences in your user account.

Time Position Orientation Groundspeed Altitude Reporting Facility
EDT Latitude Longitude Course Direction KTS MPH feet Rate Location/Type
12:57PM 47.8690 -122.2903 360° North  Level FlightAware Approximate
12:59PM 47.9214 -122.2897 360° North 120 138 1,400  Level Seattle Center
01:00PM 47.9586 -122.2894 347° North 161 185 3,300 1,860 Climbing Seattle Center
01:01PM 48.0175 -122.3092 284° West 181 208 5,200 1,440 Climbing Seattle Center
01:02PM 48.0322 -122.3947 280° West 217 250 6,300 1,140 Climbing Seattle Center
01:03PM 48.0425 -122.4792 283° West 216 249 7,600 1,380 Climbing Seattle Center
01:04PM 48.0556 -122.5667 283° West 219 252 9,200 1,380 Climbing Seattle Center
01:05PM 48.0669 -122.6422 284° West 199 229 10,500 1,140 Climbing Seattle Center
01:06PM 48.0797 -122.7169 281° West 193 222 11,600 960 Climbing Seattle Center
01:07PM 48.0903 -122.7978 282° West 197 227 12,500 900 Climbing Seattle Center
01:08PM 48.1047 -122.8969 282° West 204 235 13,500 780 Climbing Seattle Center
01:09PM 48.1186 -122.9917 272° West 235 270 14,100 240 Climbing Seattle Center
01:10PM 48.1211 -123.0858 265° West 234 269 14,100  Level Seattle Center
01:11PM 48.1156 -123.1778 265° West 226 260 14,100  Level Seattle Center
01:12PM 48.1103 -123.2644 266° West 223 257 14,100  Level Seattle Center
01:13PM 48.1058 -123.3553 287° West 220 253 14,100  Level Seattle Center
01:14PM 48.1256 -123.4544 283° West 241 277 14,100 -60 Level Seattle Center
01:15PM 48.1458 -123.5819 285° West 258 297 14,000  Descending Seattle Center
01:16PM 48.1650 -123.6922 282° West 274 315 14,100  Climbing Seattle Center
01:17PM 48.1819 -123.8089 283° West 282 325 14,100  Level Seattle Center
01:18PM 48.2003 -123.9328 283° West 301 346 14,100 -60 Level Seattle Center
01:19PM 48.2189 -124.0558 283° West 303 349 14,000 -60 Descending Seattle Center
01:20PM 48.2369 -124.1753 283° West 299 344 14,000  Level Seattle Center
01:21PM 48.2553 -124.2975 273° West 300 345 14,000  Level Seattle Center
01:22PM 48.2597 -124.4194 219° Southwest 299 344 14,000  Level Seattle Center
01:23PM 48.2008 -124.4906 155° Southeast 285 328 14,000  Level Seattle Center
01:24PM 48.1372 -124.4456 102° East 270 311 14,000  Level Seattle Center
01:25PM 48.1219 -124.3372 95° East 270 311 14,000  Level Seattle Center
01:26PM 48.1158 -124.2253 95° East 271 312 14,000  Level Seattle Center
01:27PM 48.1092 -124.1133 95° East 272 313 14,000  Level Seattle Center
01:28PM 48.1017 -123.9800 95° East 271 312 14,100  Climbing Seattle Center
01:29PM 48.0944 -123.8683 95° East 271 312 14,100 300 Level Seattle Center
01:30PM 48.0878 -123.7575 95° East 270 311 14,800 900 Climbing Seattle Center
01:31PM 48.0806 -123.6431 96° East 274 315 16,000 600 Climbing Seattle Center
01:32PM 48.0722 -123.5256 96° East 282 325 16,100  Climbing Seattle Center
01:33PM 48.0642 -123.4094 97° East 282 325 16,100 -60 Level Seattle Center
01:34PM 48.0550 -123.2931 98° East 284 327 16,000 -60 Descending Seattle Center
01:35PM 48.0442 -123.1733 95° East 284 327 16,000  Level Seattle Center
01:36PM 48.0369 -123.0572 95° East 283 326 16,000  Level Seattle Center
01:37PM 48.0294 -122.9383 96° East 287 330 16,000  Level Seattle Center
01:38PM 48.0211 -122.8203 88° East 288 331 16,000  Level Seattle Center
01:39PM 48.0236 -122.7031 32° Northeast 287 330 16,000  Level Seattle Center
01:40PM 48.1033 -122.6297 North 306 352 16,000  Level Seattle Center
01:41PM 48.1903 -122.6239 356° North 316 364 16,000  Level Seattle Center
01:42PM 48.2764 -122.6322 358° North 315 362 16,000  Level Seattle Center
01:43PM 48.3631 -122.6367 358° North 315 362 16,100  Climbing Seattle Center
01:44PM 48.4500 -122.6406 338° Northwest 316 364 16,100 -300 Level Seattle Center
01:45PM 48.5261 -122.6875 264° West 327 376 15,600 -1,140 Descending Seattle Center
01:46PM 48.5175 -122.8019 193° South 296 341 13,900 -1,260 Descending Seattle Center
01:47PM 48.4558 -122.8228 73° East 269 310 13,100 -420 Descending Seattle Center
01:48PM 48.4742 -122.7336 24° Northeast 267 307 13,100  Level Seattle Center
01:49PM 48.5597 -122.6772 24° Northeast 280 322 13,100  Level Seattle Center
01:50PM 48.6311 -122.6297 24° Northeast 283 326 13,100 -60 Level Seattle Center
01:51PM 48.7022 -122.5822 55° Northeast 283 326 13,000  Descending Seattle Center
01:52PM 48.7442 -122.4925 91° East 273 314 13,100  Climbing Seattle Center
01:53PM 48.7431 -122.3803 93° East 273 314 13,100  Level Seattle Center
01:54PM 48.7392 -122.2708 100° East 265 305 13,100  Level Seattle Center
01:55PM 48.7264 -122.1633 105° East 262 302 13,100  Level Seattle Center
01:56PM 48.7075 -122.0583 107° East 260 299 13,100  Level Seattle Center
01:57PM 48.6867 -121.9547 106° East 260 299 13,100  Level Seattle Center
01:58PM 48.6617 -121.8269 107° East 264 304 13,100 -60 Level Seattle Center
01:59PM 48.6397 -121.7211 125° Southeast 266 306 13,000  Descending Seattle Center
02:00PM 48.5956 -121.6275 128° Southeast 281 323 13,100  Climbing Seattle Center
02:02PM 48.5508 -121.5417 127° Southeast 268 308 13,000  Descending Seattle Center
02:03PM 48.5064 -121.4536 129° Southeast 268 308 13,100  Climbing Seattle Center
02:04PM 48.4606 -121.3683 130° Southeast 265 305 13,100  Level Seattle Center
02:05PM 48.4125 -121.2831 129° Southeast 267 307 13,100 540 Level Seattle Center
02:06PM 48.3658 -121.1969 130° Southeast 268 308 14,200 2,100 Climbing Seattle Center
02:07PM 48.3175 -121.1097 128° Southeast 271 312 17,400 2,340 Climbing Seattle Center
02:08PM 48.2689 -121.0161 127° Southeast 283 326 19,000 960 Climbing Seattle Center
02:09PM 48.2117 -120.9003 129° Southeast 288 331 19,400  Climbing Seattle Center
02:10PM 48.1625 -120.8097 130° Southeast 292 336 19,000 -420 Descending Seattle Center
02:11PM 48.1086 -120.7136 130° Southeast 299 344 18,600 -840 Descending Seattle Center
02:12PM 48.0558 -120.6186 130° Southeast 298 343 17,300 -660 Descending Seattle Center
02:13PM 48.0036 -120.5272 130° Southeast 293 337 17,300  Level Seattle Center
02:14PM 47.9522 -120.4358 129° Southeast 290 334 17,300  Level Seattle Center
02:15PM 47.9028 -120.3456 129° Southeast 285 328 17,300  Level Seattle Center
02:16PM 47.8539 -120.2564 129° Southeast 280 322 17,300  Level Seattle Center
02:17PM 47.8058 -120.1669 130° Southeast 278 320 17,300  Level Seattle Center
02:18PM 47.7450 -120.0586 130° Southeast 281 323 17,300  Level Seattle Center
02:19PM 47.6939 -119.9683 130° Southeast 284 327 17,300 -120 Level Seattle Center
02:20PM 47.6431 -119.8794 129° Southeast 283 326 17,100 -840 Descending Seattle Center
02:21PM 47.5956 -119.7931 129° Southeast 274 315 15,700 -1,080 Descending Seattle Center
02:22PM 47.5508 -119.7117 129° Southeast 264 304 15,000 -360 Descending Seattle Center
02:23PM 47.5050 -119.6283 131° Southeast 264 304 15,000  Level Seattle Center
02:24PM 47.4561 -119.5450 129° Southeast 269 310 15,000  Level Seattle Center
02:25PM 47.4119 -119.4650 130° Southeast 259 298 15,000  Level Seattle Center
02:26PM 47.3633 -119.3803 130° Southeast 270 311 15,000  Level Seattle Center
02:27PM 47.3172 -119.2981 131° Southeast 263 303 15,000  Level Seattle Center
02:28PM 47.2667 -119.2128 148° Southeast 276 318 15,000  Level Seattle Center
02:29PM 47.1950 -119.1467 217° Southwest 262 302 15,000  Level Seattle Center
02:30PM 47.1378 -119.2108 274° West 287 330 15,000  Level Seattle Center
02:31PM 47.1442 -119.3339 325° Northwest 325 374 15,000  Level Seattle Center
02:32PM 47.2156 -119.4075 341° North 324 373 15,000  Level Seattle Center
02:33PM 47.3006 -119.4503 342° North 320 368 15,000  Level Seattle Center
02:34PM 47.3894 -119.4942 342° North 332 382 15,000  Level Seattle Center
02:35PM 47.4797 -119.5386 343° North 340 391 15,000 -300 Level Seattle Center
02:36PM 47.5600 -119.5750 359° North 292 336 14,400 -1,020 Descending Seattle Center
02:37PM 47.6425 -119.5761 46° Northeast 299 344 13,000 -1,380 Descending Seattle Center
02:38PM 47.6944 -119.4956 73° East 269 310 11,700 -1,020 Descending Seattle Center
02:39PM 47.7139 -119.3983 71° East 239 275 11,000 -360 Descending Seattle Center
02:40PM 47.7406 -119.2797 14° North 255 293 11,000  Level Seattle Center
02:41PM 47.8119 -119.2542 313° West 279 321 11,000  Level Seattle Center
02:42PM 47.8628 -119.3353 266° West 280 322 11,000  Level Seattle Center
02:43PM 47.8578 -119.4506 225° Southwest 289 333 11,000  Level Seattle Center
02:44PM 47.8061 -119.5267 182° South 272 313 11,000  Level Seattle Center
02:45PM 47.7414 -119.5306 130° Southeast 228 262 11,100  Climbing Seattle Center
02:46PM 47.7097 -119.4753 67° East 174 200 11,100 -60 Level Seattle Center
02:47PM 47.7267 -119.4147 36° Northeast 166 191 11,000 -480 Descending Seattle Center
02:48PM 47.7633 -119.3753 39° Northeast 161 185 10,200 180 Descending Seattle Center
02:49PM 47.7964 -119.3350 31° Northeast 157 181 11,400 60 Climbing Seattle Center
02:50PM 47.8417 -119.2944 North 153 176 10,400 -180 Descending Seattle Center
02:51PM 47.8808 -119.2928 270° West 166 191 11,100 -300 Climbing Seattle Center
02:52PM 47.8806 -119.3600 168° South 188 216 9,800 -300 Descending Seattle Center
02:53PM 47.8431 -119.3478 163° South 142 163 10,600 540 Climbing Seattle Center
02:54PM 47.8017 -119.3286 159° South 153 176 11,000 180 Climbing Seattle Center
02:55PM 47.7606 -119.3050 159° South 160 184 11,000  Level Seattle Center
02:56PM 47.7178 -119.2806 118° Southeast 164 189 11,100 60 Climbing Seattle Center
02:58PM 47.6983 -119.2264 347° North 177 204 11,200  Climbing Seattle Center
02:59PM 47.7444 -119.2419 314° West 216 249 11,100 -120 Descending Seattle Center
03:00PM 47.7886 -119.3108 304° West 191 220 11,000 -300 Descending Seattle Center
03:01PM 47.8183 -119.3775 301° West 192 221 10,500 -300 Descending Seattle Center
03:02PM 47.8456 -119.4458 297° West 192 221 10,500 -180 Level Seattle Center
03:03PM 47.8700 -119.5161 292° West 191 220 10,200 120 Descending Seattle Center
03:04PM 47.8897 -119.5894 294° West 190 219 10,800 420 Climbing Seattle Center
03:05PM 47.9106 -119.6597 315° West 187 215 11,100 300 Climbing Seattle Center
03:06PM 47.9483 -119.7153 288° West 193 222 11,500 180 Climbing Seattle Center
03:07PM 47.9611 -119.7756 146° Southeast 203 234 11,500 -60 Level Seattle Center
03:08PM 47.9294 -119.7433 110° East 168 193 11,400 -420 Descending Seattle Center
03:09PM 47.9147 -119.6836 102° East 153 176 10,700 -180 Descending Seattle Center
03:10PM 47.9056 -119.6178 92° East 135 155 11,100 780 Climbing Seattle Center
03:11PM 47.9044 -119.5572 91° East 142 163 12,300 540 Climbing Seattle Center
03:12PM 47.9036 -119.4883 84° East 166 191 12,200 -600 Descending Seattle Center
03:13PM 47.9086 -119.4197 316° Northwest 168 193 11,100 -540 Descending Seattle Center
03:14PM 47.9383 -119.4625 289° West 189 217 11,100 240 Level Seattle Center
03:15PM 47.9564 -119.5419 284° West 204 235 11,700 -60 Climbing Seattle Center
03:16PM 47.9700 -119.6233 274° West 203 234 11,000 -480 Descending Seattle Center
03:17PM 47.9742 -119.7103 277° West 207 238 10,800 -540 Descending Seattle Center
03:18PM 47.9817 -119.7978 226° Southwest 215 247 10,000 240 Descending Seattle Center
03:19PM 47.9525 -119.8436 118° Southeast 195 224 11,400 900 Climbing Seattle Center
03:20PM 47.9278 -119.7736 111° Southeast 162 186 11,900 180 Climbing Seattle Center
03:21PM 47.9125 -119.7131 76° East 157 181 11,800 -120 Descending Seattle Center
03:22PM 47.9239 -119.6469 63° Northeast 163 188 11,700 -60 Descending Seattle Center
03:23PM 47.9456 -119.5844 88° East 168 193 11,700  Level Seattle Center
03:24PM 47.9478 -119.4919 95° East 218 251 11,700  Level Seattle Center
03:25PM 47.9431 -119.4047 95° East 217 250 11,700  Level Seattle Center
03:26PM 47.9378 -119.3131 130° Southeast 220 253 11,700  Level Seattle Center
03:27PM 47.9042 -119.2525 232° Southwest 219 252 11,700  Level Seattle Center
03:28PM 47.8686 -119.3211 268° West 237 273 11,700 -60 Level Seattle Center
03:29PM 47.8656 -119.4275 310° West 258 297 11,600 -180 Descending Seattle Center
03:30PM 47.9203 -119.5250 314° West 261 300 11,400 -120 Descending Seattle Center
03:31PM 47.9697 -119.6011 313° West 257 296 11,400  Level Seattle Center
03:32PM 48.0181 -119.6789 264° West 257 296 11,400 -60 Level Seattle Center
03:33PM 48.0114 -119.7783 198° South 260 299 11,300 -120 Descending Seattle Center
03:34PM 47.9600 -119.8036 83° East 243 280 11,200 -60 Descending Seattle Center
03:35PM 47.9672 -119.7194 77° East 210 242 11,200 -420 Level Seattle Center
03:36PM 47.9778 -119.6483 76° East 185 213 10,400 -240 Descending Seattle Center
03:37PM 47.9878 -119.5894 32° Northeast 150 173 10,800 540 Climbing Seattle Center
03:38PM 48.0281 -119.5525 341° North 198 228 11,500 -240 Climbing Seattle Center
03:39PM 48.0742 -119.5758 212° Southwest 203 234 10,400 -420 Descending Seattle Center
03:40PM 48.0253 -119.6208 152° Southeast 185 213 10,700 360 Climbing Seattle Center
03:41PM 47.9803 -119.5850 81° East 226 260 11,200 60 Climbing Seattle Center
03:42PM 47.9889 -119.5003 59° Northeast 216 249 10,900 -300 Descending Seattle Center
03:43PM 48.0194 -119.4236 332° Northwest 210 242 10,600 360 Descending Seattle Center
03:44PM 48.0697 -119.4639 258° West 255 293 11,700 420 Climbing Seattle Center
03:45PM 48.0553 -119.5653 212° Southwest 255 293 11,500 -480 Descending Seattle Center
03:46PM 48.0083 -119.6094 100° East 236 272 10,800 -300 Descending Seattle Center
03:48PM 47.9986 -119.5278 63° Northeast 208 239 11,000  Climbing Seattle Center
03:49PM 48.0297 -119.4356 56° Northeast 248 285 10,800 -180 Descending Seattle Center
03:50PM 48.0761 -119.3306 344° North 258 297 10,700 60 Descending Seattle Center
03:51PM 48.1339 -119.3558 293° West 284 327 11,000 -300 Climbing Seattle Center
03:52PM 48.1642 -119.4642 288° West 282 325 10,200 -180 Descending Seattle Center
03:53PM 48.1886 -119.5756 225° Southwest 283 326 10,700 360 Climbing Seattle Center
03:54PM 48.1378 -119.6508 216° Southwest 270 311 11,000 120 Climbing Seattle Center
03:55PM 48.0869 -119.7067 209° Southwest 247 284 11,000 -180 Level Seattle Center
03:56PM 48.0306 -119.7525 203° Southwest 232 267 10,700 -360 Descending Seattle Center
03:57PM 47.9778 -119.7861 132° Southeast 230 265 10,300 -720 Descending Seattle Center
03:58PM 47.9378 -119.7194 134° Southeast 222 255 9,300 -1,140 Descending Seattle Center
03:59PM 47.8928 -119.6492 133° Southeast 237 273 8,000 -1,140 Descending Seattle Center
04:00PM 47.8403 -119.5650 133° Southeast 228 262 7,000 -480 Descending Seattle Center
04:01PM 47.7983 -119.4975 70° East 224 258 7,100 120 Climbing Seattle Center
04:02PM 47.8172 -119.4192 50° Northeast 243 280 7,300 60 Climbing Seattle Center
04:03PM 47.8594 -119.3442 49° Northeast 238 274 7,300  Level Seattle Center
04:04PM 47.9011 -119.2719 65° Northeast 234 269 7,300 240 Level Seattle Center
04:05PM 47.9278 -119.1872 144° Southeast 228 262 7,800 240 Climbing Seattle Center
04:06PM 47.8822 -119.1386 232° Southwest 230 265 7,900 -180 Climbing Seattle Center
04:07PM 47.8411 -119.2167 253° West 262 302 7,500 -240 Descending Seattle Center
04:08PM 47.8200 -119.3186 252° West 259 298 7,500  Level Seattle Center
04:09PM 47.7978 -119.4203 252° West 260 299 7,500  Level Seattle Center
04:10PM 47.7747 -119.5228 252° West 260 299 7,500 -360 Level Seattle Center
04:11PM 47.7478 -119.6456 252° West 262 302 6,800 -540 Descending Seattle Center
04:12PM 47.7244 -119.7492 252° West 264 304 6,500 -180 Descending Seattle Center
04:13PM 47.7017 -119.8517 269° West 264 304 6,500  Level Seattle Center
04:14PM 47.7008 -119.9569 12° North 275 316 6,600 420 Climbing Seattle Center
04:15PM 47.7622 -119.9381 48° Northeast 254 292 7,400 720 Climbing Seattle Center
04:16PM 47.8061 -119.8658 58° Northeast 242 278 8,100 1,980 Climbing Seattle Center
04:17PM 47.8397 -119.7850 90° East 242 278 11,500 3,360 Climbing Seattle Center
04:18PM 47.8400 -119.6828 82° East 251 289 15,000 2,700 Climbing Seattle Center
04:19PM 47.8503 -119.5675 82° East 276 318 17,000 1,680 Climbing Seattle Center
04:20PM 47.8614 -119.4500 84° East 284 327 18,500 960 Climbing Seattle Center
04:21PM 47.8708 -119.3206 100° East 309 356 19,000 240 Climbing Seattle Center
04:22PM 47.8539 -119.1803 161° South 290 334 19,000  Level Seattle Center
04:23PM 47.7828 -119.1439 221° Southwest 285 328 19,000  Level Seattle Center
04:24PM 47.7211 -119.2222 273° West 303 349 19,000  Level Seattle Center
04:25PM 47.7256 -119.3489 298° West 325 374 19,000  Level Seattle Center
04:26PM 47.7686 -119.4703 298° West 333 383 19,000  Level Seattle Center
04:27PM 47.8122 -119.5911 298° West 333 383 19,000  Level Seattle Center
04:28PM 47.8542 -119.7100 299° West 329 379 19,000  Level Seattle Center
04:29PM 47.8983 -119.8294 299° West 330 380 19,000  Level Seattle Center
04:30PM 47.9425 -119.9497 299° West 331 381 19,000  Level Seattle Center
04:31PM 47.9867 -120.0706 297° West 332 382 19,000  Level Seattle Center
04:32PM 48.0353 -120.2106 297° West 320 368 19,000  Level Seattle Center
04:33PM 48.0750 -120.3272 298° West 316 364 19,000  Level Seattle Center
04:34PM 48.1153 -120.4422 298° West 314 361 19,000  Level Seattle Center
04:35PM 48.1572 -120.5586 297° West 317 365 19,000  Level Seattle Center
04:36PM 48.1964 -120.6731 297° West 313 360 19,000  Level Seattle Center
04:37PM 48.2347 -120.7878 297° West 310 357 19,000  Level Seattle Center
04:38PM 48.2744 -120.9067 298° West 303 349 19,000  Level Seattle Center
04:39PM 48.3142 -121.0181 297° West 305 351 19,000  Level Seattle Center
04:41PM 48.3547 -121.1378 297° West 319 367 19,000  Level Seattle Center
04:42PM 48.3939 -121.2556 298° West 319 367 19,000  Level Seattle Center
04:43PM 48.4333 -121.3689 297° West 313 360 19,000  Level Seattle Center
04:44PM 48.4794 -121.5042 304° West 308 354 19,000  Level Seattle Center
04:45PM 48.5269 -121.6103 311° West 310 357 19,000  Level Seattle Center
04:46PM 48.5847 -121.7117 267° West 321 369 19,000  Level Seattle Center
04:47PM 48.5808 -121.8333 208° Southwest 307 353 19,000  Level Seattle Center
04:48PM 48.5161 -121.8844 143° Southeast 277 319 19,000  Level Seattle Center
04:49PM 48.4600 -121.8208 79° East 273 314 19,000 -360 Level Seattle Center
04:50PM 48.4742 -121.7083 18° North 291 335 18,300 -1,500 Descending Seattle Center
04:51PM 48.5633 -121.6633 322° Northwest 308 354 16,000 -2,160 Descending Seattle Center
04:52PM 48.6258 -121.7369 308° West 295 339 14,000 -1,500 Descending Seattle Center
04:53PM 48.6736 -121.8311 308° West 287 330 13,000 -540 Descending Seattle Center
04:54PM 48.7219 -121.9244 272° West 285 328 13,000  Level Seattle Center
04:55PM 48.7242 -122.0342 250° West 274 315 13,000  Level Seattle Center
04:56PM 48.6983 -122.1442 250° West 278 320 13,000  Level Seattle Center
04:57PM 48.6678 -122.2728 251° West 276 318 13,000  Level Seattle Center
04:58PM 48.6450 -122.3706 251° West 254 292 13,000  Level Seattle Center
04:59PM 48.6242 -122.4594 212° Southwest 232 267 13,000  Level Seattle Center
05:00PM 48.5733 -122.5072 203° Southwest 230 265 13,000  Level Seattle Center
05:01PM 48.5053 -122.5511 202° Southwest 251 289 13,000  Level Seattle Center
05:02PM 48.4342 -122.5944 202° Southwest 269 310 13,000  Level Seattle Center
05:03PM 48.3481 -122.6469 202° Southwest 280 322 13,000 -60 Level Seattle Center
05:04PM 48.2772 -122.6889 201° Southwest 278 320 12,900 -60 Descending Seattle Center
05:05PM 48.2069 -122.7300 202° Southwest 276 318 12,900  Level Seattle Center
05:06PM 48.1333 -122.7744 202° Southwest 286 329 12,900 -300 Level Seattle Center
05:07PM 48.0572 -122.8211 167° South 294 338 12,300 -840 Descending Seattle Center
05:08PM 47.9861 -122.7964 150° Southeast 282 325 11,300 -1,020 Descending Seattle Center
05:09PM 47.9247 -122.7444 148° Southeast 263 303 10,300 -660 Descending Seattle Center
05:10PM 47.8542 -122.6792 149° Southeast 254 292 10,000 -300 Descending Seattle Center
05:14PM 47.7838 -122.6160 149° Southeast  Level FlightAware Approximate
05:19PM 47.7134 -122.5530 150° Southeast  Level FlightAware Approximate
05:24PM 47.6423 -122.4923 137° Southeast  Level FlightAware Approximate
05:29PM 47.5826 -122.4099 126° Southeast  Level FlightAware Approximate
05:34PM 47.5345 -122.3112 126° Southeast  Level Estimated